Time;durP1;ratioP1;P1;durP2;ratioP2;P2;SDS_P1;SDS_P2;PMS_P1;PMS_P2;Temp;Humidity;BMP_temperature;BMP_pressure;BME280_temperature;BME280_humidity;BME280_pressure;Samples;Min_cycle;Max_cycle;Signal;HPM_P1;HPM_P2
2021/03/25 00:01:19;;;;;;;51.03;31.58;;;8.90;73.30;;;;;;5118638;27;20033;-78
2021/03/25 00:03:48;;;;;;;61.13;33.50;;;8.80;73.40;;;;;;5117958;27;20034;-78
2021/03/25 00:06:14;;;;;;;57.10;31.35;;;8.80;73.70;;;;;;5136766;27;20031;-77
2021/03/25 00:08:39;;;;;;;63.05;31.10;;;8.80;73.80;;;;;;5137325;27;20055;-78
2021/03/25 00:11:05;;;;;;;57.90;32.15;;;8.70;73.90;;;;;;5119282;27;20070;-78
2021/03/25 00:13:31;;;;;;;60.47;30.85;;;8.70;73.90;;;;;;5119385;27;20046;-77
2021/03/25 00:15:57;;;;;;;49.10;28.88;;;8.70;74.00;;;;;;5137540;27;20072;-77
2021/03/25 00:18:23;;;;;;;54.92;31.00;;;8.70;73.90;;;;;;5137632;27;20049;-78
2021/03/25 00:20:49;;;;;;;55.85;31.05;;;8.70;73.80;;;;;;5137982;27;20071;-78
2021/03/25 00:23:16;;;;;;;54.28;29.67;;;8.70;73.80;;;;;;5102203;27;20475;-77
2021/03/25 00:25:42;;;;;;;56.55;32.40;;;8.80;73.80;;;;;;5137795;27;20468;-77
2021/03/25 00:28:11;;;;;;;56.15;31.40;;;8.80;73.70;;;;;;5119009;27;20058;-78
2021/03/25 00:30:37;;;;;;;56.28;31.63;;;8.70;73.60;;;;;;5137260;27;20023;-78
2021/03/25 00:33:06;;;;;;;57.78;30.85;;;8.60;73.50;;;;;;5137364;27;20633;-77
2021/03/25 00:35:32;;;;;;;;;;;8.60;73.80;;;;;;5137842;27;20448;-77
2021/03/25 00:37:59;;;;;;;52.67;31.10;;;8.60;73.70;;;;;;5137175;27;19910;-78
2021/03/25 00:40:24;;;;;;;54.35;32.00;;;8.50;73.90;;;;;;5118689;27;20080;-78
2021/03/25 00:42:50;;;;;;;62.90;33.15;;;8.50;74.00;;;;;;5118715;27;20031;-78
2021/03/25 00:45:32;;;;;;;60.85;34.38;;;8.50;74.10;;;;;;5118995;27;20055;-77
2021/03/25 00:47:58;;;;;;;52.00;30.95;;;8.40;74.30;;;;;;5136848;27;20027;-78
2021/03/25 00:50:46;;;;;;;56.22;32.80;;;8.40;74.20;;;;;;5101904;27;20034;-78
2021/03/25 00:53:15;;;;;;;57.70;33.55;;;8.40;74.40;;;;;;5118227;27;20047;-77
2021/03/25 00:55:40;;;;;;;63.50;34.25;;;8.30;74.60;;;;;;5136847;27;20031;-78
2021/03/25 00:58:06;;;;;;;66.22;35.55;;;8.20;74.80;;;;;;5136540;27;20035;-77
2021/03/25 01:00:35;;;;;;;61.30;34.42;;;8.30;75.00;;;;;;5118477;27;20031;-77
2021/03/25 01:03:01;;;;;;;62.85;34.63;;;8.20;75.00;;;;;;5136801;27;20023;-78
2021/03/25 01:05:27;;;;;;;68.25;34.95;;;8.30;75.00;;;;;;5136817;27;20087;-77
2021/03/25 01:07:53;;;;;;;59.50;35.33;;;8.30;75.20;;;;;;5118018;27;20567;-77
2021/03/25 01:10:39;;;;;;;57.08;33.47;;;8.30;75.90;;;;;;5136661;27;20114;-77
2021/03/25 01:13:36;;;;;;;60.63;34.20;;;8.30;75.60;;;;;;5135919;27;20069;-77
2021/03/25 01:16:03;;;;;;;56.67;32.30;;;8.30;75.60;;;;;;5100709;27;20352;-77
2021/03/25 01:18:29;;;;;;;64.45;33.17;;;8.30;75.50;;;;;;5136474;27;20164;-77
2021/03/25 01:20:56;;;;;;;56.45;32.42;;;8.30;75.50;;;;;;5117855;27;20035;-77
2021/03/25 01:23:22;;;;;;;58.10;32.53;;;8.30;75.50;;;;;;5136253;27;20023;-77
2021/03/25 01:25:49;;;;;;;57.33;34.72;;;8.30;75.50;;;;;;5136393;27;20054;-77
2021/03/25 01:28:16;;;;;;;62.50;34.83;;;8.40;75.80;;;;;;5136179;27;20039;-77
2021/03/25 01:30:43;;;;;;;57.35;33.65;;;8.40;76.20;;;;;;5135944;27;20050;-77
2021/03/25 01:33:10;;;;;;;57.45;33.15;;;8.30;76.40;;;;;;5117372;27;20475;-77
2021/03/25 01:35:38;;;;;;;56.13;33.13;;;8.30;76.50;;;;;;5135751;27;20016;-77
2021/03/25 01:38:06;;;;;;;55.78;32.42;;;8.40;76.60;;;;;;5117483;27;20023;-77
2021/03/25 01:40:43;;;;;;;58.88;32.25;;;8.40;76.70;;;;;;5135379;27;20047;-77
2021/03/25 01:43:12;;;;;;;56.97;32.60;;;8.40;77.00;;;;;;5135138;27;20027;-77
2021/03/25 01:45:51;;;;;;;55.45;30.55;;;8.40;76.90;;;;;;5134939;27;20023;-77
2021/03/25 01:48:19;;;;;;;53.40;31.33;;;8.50;77.00;;;;;;5136039;27;20023;-77
2021/03/25 01:50:45;;;;;;;59.22;32.58;;;8.40;76.90;;;;;;5135870;27;20027;-77
2021/03/25 01:53:26;;;;;;;60.90;32.83;;;8.50;77.00;;;;;;5117091;27;20043;-77
2021/03/25 01:56:03;;;;;;;52.00;31.05;;;8.40;77.10;;;;;;5116442;27;20015;-77
2021/03/25 01:58:52;;;;;;;59.55;32.28;;;8.40;77.00;;;;;;5136047;27;20084;-77
2021/03/25 02:01:40;;;;;;;60.20;32.65;;;8.40;77.00;;;;;;5135646;27;20027;-77
2021/03/25 02:04:36;;;;;;;56.72;32.95;;;8.40;77.00;;;;;;5135404;27;20051;-78
2021/03/25 02:07:08;;;;;;;58.88;33.58;;;8.30;77.00;;;;;;5119949;27;20019;-77
2021/03/25 02:09:53;;;;;;;63.53;35.13;;;8.40;77.10;;;;;;5134905;27;20019;-77
2021/03/25 02:12:39;;;;;;;61.50;34.10;;;8.30;77.30;;;;;;5116679;27;20027;-77
2021/03/25 02:15:17;;;;;;;57.05;33.38;;;8.30;77.30;;;;;;5116777;27;20114;-77
2021/03/25 02:17:50;;;;;;;56.60;32.72;;;8.20;77.40;;;;;;5135110;27;20373;-78
2021/03/25 02:20:31;;;;;;;62.17;34.65;;;8.10;77.50;;;;;;5116810;27;20034;-78
2021/03/25 02:23:06;;;;;;;58.33;33.28;;;8.20;77.90;;;;;;5134940;27;20053;-77
2021/03/25 02:25:41;;;;;;;57.55;31.95;;;8.20;77.80;;;;;;5114827;28;20034;-77
2021/03/25 02:28:27;;;;;;;61.78;34.42;;;8.10;77.70;;;;;;5123012;27;20031;-77
2021/03/25 02:31:12;;;;;;;53.38;30.92;;;8.20;77.90;;;;;;5135040;27;20023;-77
2021/03/25 02:33:41;;;;;;;54.85;30.95;;;8.20;77.90;;;;;;5134491;27;20030;-77
2021/03/25 02:36:10;;;;;;;55.30;31.75;;;8.10;77.80;;;;;;5134924;27;20083;-77
2021/03/25 02:38:42;;;;;;;54.25;32.95;;;8.10;77.80;;;;;;5116161;27;20034;-77
2021/03/25 02:41:20;;;;;;;56.50;32.03;;;8.00;77.90;;;;;;5134155;27;20121;-77
2021/03/25 02:43:49;;;;;;;56.80;32.80;;;8.10;78.10;;;;;;5116004;27;20031;-77
2021/03/25 02:46:46;;;;;;;55.40;32.78;;;8.00;77.90;;;;;;5134942;27;20068;-77
2021/03/25 02:49:16;;;;;;;56.67;32.30;;;8.00;78.00;;;;;;5115766;27;20121;-77
2021/03/25 02:52:11;;;;;;;58.90;32.60;;;8.00;77.90;;;;;;5134232;27;20486;-77
2021/03/25 02:54:37;;;;;;;58.60;33.97;;;8.10;78.10;;;;;;5095807;28;20124;-77
2021/03/25 02:57:22;;;;;;;58.33;33.00;;;8.00;77.90;;;;;;5115127;27;20170;-77
2021/03/25 02:59:49;;;;;;;54.72;32.28;;;8.00;78.10;;;;;;5134573;27;20045;-77
2021/03/25 03:02:21;;;;;;;66.72;35.95;;;8.10;78.10;;;;;;5116276;27;20023;-77
2021/03/25 03:04:50;;;;;;;56.72;33.22;;;8.00;78.00;;;;;;5134455;27;20023;-77
2021/03/25 03:07:27;;;;;;;;;;;8.00;78.10;;;;;;5134998;27;20196;-77
2021/03/25 03:09:56;;;;;;;70.22;37.88;;;7.90;78.30;;;;;;5134346;27;19911;-77
2021/03/25 03:12:26;;;;;;;69.75;36.33;;;7.90;78.50;;;;;;5134160;27;20011;-77
2021/03/25 03:15:00;;;;;;;64.03;35.03;;;7.80;78.80;;;;;;5134217;27;20472;-77
2021/03/25 03:17:31;;;;;;;61.65;36.45;;;7.80;79.00;;;;;;5134244;27;20034;-77
2021/03/25 03:20:09;;;;;;;70.65;37.85;;;7.80;79.20;;;;;;5133660;27;20019;-77
2021/03/25 03:22:36;;;;;;;61.05;35.58;;;7.60;79.70;;;;;;5116057;27;20467;-77
2021/03/25 03:25:10;;;;;;;68.75;40.05;;;7.60;80.00;;;;;;5115675;28;20031;-77
2021/03/25 03:28:07;;;;;;;72.55;40.40;;;7.60;80.40;;;;;;5134212;27;20080;-77
2021/03/25 03:30:44;;;;;;;80.05;42.35;;;7.60;80.50;;;;;;5129437;27;20076;-77
2021/03/25 03:33:18;;;;;;;78.90;43.05;;;7.50;81.20;;;;;;5134368;27;20015;-77
2021/03/25 03:35:54;;;;;;;82.10;42.40;;;7.50;80.50;;;;;;5134039;27;20019;-77
2021/03/25 03:38:32;;;;;;;78.63;41.53;;;7.50;80.40;;;;;;5134409;28;20047;-77
2021/03/25 03:40:58;;;;;;;83.50;43.25;;;7.50;80.50;;;;;;5133798;27;20019;-77
2021/03/25 03:43:26;;;;;;;68.95;38.70;;;7.50;80.40;;;;;;5116098;28;20110;-77
2021/03/25 03:46:04;;;;;;;91.07;47.28;;;7.50;80.40;;;;;;5115526;28;20479;-77
2021/03/25 03:48:37;;;;;;;90.90;46.97;;;7.50;81.20;;;;;;5115774;28;20555;-75
2021/03/25 03:51:07;;;;;;;85.55;44.33;;;7.40;81.10;;;;;;5114598;28;20057;-75
2021/03/25 03:53:33;;;;;;;84.10;45.95;;;7.40;81.10;;;;;;5133656;28;20130;-76
2021/03/25 03:56:26;;;;;;;78.63;45.00;;;7.40;81.10;;;;;;5094721;28;20027;-75
2021/03/25 03:58:56;;;;;;;83.05;42.90;;;7.40;81.20;;;;;;5125492;27;20425;-75
2021/03/25 04:01:41;;;;;;;83.68;44.35;;;7.40;81.20;;;;;;5133423;28;20027;-75
2021/03/25 04:04:13;;;;;;;77.20;40.60;;;7.40;81.40;;;;;;5133419;27;20037;-75
2021/03/25 04:06:46;;;;;;;75.40;39.70;;;7.40;81.30;;;;;;5115301;28;20081;-76
2021/03/25 04:09:18;;;;;;;76.40;40.85;;;7.50;81.30;;;;;;5114981;28;20383;-75
2021/03/25 04:11:52;;;;;;;76.10;41.10;;;7.50;81.30;;;;;;5133102;27;20110;-75
2021/03/25 04:14:42;;;;;;;72.57;40.05;;;7.50;81.40;;;;;;5133654;28;20015;-75
2021/03/25 04:17:10;;;;;;;68.47;39.55;;;7.60;81.30;;;;;;5123247;28;20024;-75
2021/03/25 04:19:42;;;;;;;72.20;39.78;;;7.60;81.10;;;;;;5122656;28;20383;-75
2021/03/25 04:22:21;;;;;;;73.65;41.08;;;7.70;81.10;;;;;;5133479;27;20374;-75
2021/03/25 04:24:53;;;;;;;;;;;7.70;81.20;;;;;;5133927;27;20024;-75
2021/03/25 04:27:30;;;;;;;79.95;40.85;;;7.70;81.00;;;;;;5133373;28;20006;-75
2021/03/25 04:30:02;;;;;;;79.50;41.40;;;7.70;81.30;;;;;;5114699;28;20076;-75
2021/03/25 04:32:28;;;;;;;72.75;37.50;;;7.80;81.80;;;;;;5116393;27;20054;-75
2021/03/25 04:34:54;;;;;;;80.60;42.88;;;7.80;81.00;;;;;;5119001;27;20054;-75
2021/03/25 04:37:21;;;;;;;77.78;41.78;;;7.80;81.00;;;;;;5118566;27;20039;-75
2021/03/25 04:39:48;;;;;;;77.70;42.25;;;7.90;81.40;;;;;;5137015;27;20072;-76
2021/03/25 04:42:14;;;;;;;84.00;42.63;;;7.90;81.60;;;;;;5118178;27;20096;-75
2021/03/25 04:44:54;;;;;;;73.70;41.00;;;7.80;81.50;;;;;;5136733;27;20047;-75
2021/03/25 04:47:30;;;;;;;71.43;39.67;;;7.80;81.50;;;;;;5136255;27;20015;-75
2021/03/25 04:49:57;;;;;;;80.05;44.53;;;7.90;81.60;;;;;;5137042;27;20336;-75
2021/03/25 04:52:27;;;;;;;78.65;40.65;;;7.90;81.50;;;;;;5136132;27;20066;-75
2021/03/25 04:54:53;;;;;;;79.47;42.92;;;7.90;82.20;;;;;;5135979;27;20027;-76
2021/03/25 04:57:36;;;;;;;77.75;40.58;;;7.90;81.70;;;;;;5136528;27;20031;-75
2021/03/25 05:00:13;;;;;;;75.93;40.42;;;7.90;81.70;;;;;;5136565;27;20555;-76
2021/03/25 05:02:39;;;;;;;78.43;39.60;;;7.90;81.80;;;;;;5135979;27;20483;-75
2021/03/25 05:05:06;;;;;;;74.80;42.05;;;8.00;81.70;;;;;;5136009;27;20038;-76
2021/03/25 05:07:37;;;;;;;83.50;41.72;;;7.90;82.00;;;;;;5136485;27;20027;-75
2021/03/25 05:10:12;;;;;;;71.93;39.25;;;7.90;82.10;;;;;;5135869;27;20247;-75
2021/03/25 05:12:37;;;;;;;70.30;38.88;;;7.90;82.20;;;;;;5136498;27;20023;-75
2021/03/25 05:15:10;;;;;;;64.35;37.92;;;7.90;82.20;;;;;;5097264;28;20387;-75
2021/03/25 05:18:04;;;;;;;72.25;36.92;;;8.00;82.20;;;;;;5114393;28;20024;-75
2021/03/25 05:20:47;;;;;;;66.85;36.92;;;8.00;82.00;;;;;;5117461;27;20110;-75
2021/03/25 05:23:43;;;;;;;81.95;39.30;;;8.00;81.80;;;;;;5135743;27;20034;-75
2021/03/25 05:26:31;;;;;;;76.28;42.33;;;8.10;81.90;;;;;;5115508;28;20115;-76
2021/03/25 05:29:00;;;;;;;75.88;41.03;;;8.00;81.90;;;;;;5132958;27;20055;-75
2021/03/25 05:31:32;;;;;;;73.53;38.63;;;8.10;81.80;;;;;;5136267;27;20023;-75
2021/03/25 05:34:01;;;;;;;66.97;36.78;;;8.10;81.80;;;;;;5117143;27;20066;-75
2021/03/25 05:36:29;;;;;;;71.00;37.25;;;8.10;81.70;;;;;;5136003;27;20480;-75
2021/03/25 05:38:55;;;;;;;69.50;37.75;;;8.10;81.60;;;;;;5117219;27;20051;-75
2021/03/25 05:41:52;;;;;;;66.50;35.47;;;8.20;81.70;;;;;;5135344;27;20059;-75
2021/03/25 05:44:45;;;;;;;65.57;36.25;;;8.20;81.80;;;;;;5115913;27;20429;-75
2021/03/25 05:47:45;;;;;;;60.72;35.42;;;8.20;81.80;;;;;;5134837;27;20076;-75
2021/03/25 05:50:14;;;;;;;68.90;36.33;;;8.30;81.90;;;;;;5135222;27;20034;-75
2021/03/25 05:53:10;;;;;;;64.95;35.63;;;8.30;81.60;;;;;;5116206;27;20043;-75
2021/03/25 05:55:52;;;;;;;63.83;36.20;;;8.30;81.80;;;;;;5115804;27;20035;-75
2021/03/25 05:58:32;;;;;;;69.50;37.20;;;8.30;81.90;;;;;;5135354;27;20027;-75
2021/03/25 06:01:03;;;;;;;65.43;37.42;;;8.30;81.90;;;;;;5135171;27;20031;-75
2021/03/25 06:03:30;;;;;;;68.03;37.17;;;8.30;82.00;;;;;;5116712;27;20019;-75
2021/03/25 06:05:58;;;;;;;63.70;36.35;;;8.30;82.20;;;;;;5134753;27;20033;-75
2021/03/25 06:08:43;;;;;;;67.95;36.83;;;8.30;81.90;;;;;;5116709;27;20107;-75
2021/03/25 06:11:41;;;;;;;62.03;36.88;;;8.30;82.00;;;;;;5134888;27;20035;-75
2021/03/25 06:14:20;;;;;;;68.47;36.50;;;8.40;82.00;;;;;;5129982;27;20088;-75
2021/03/25 06:17:12;;;;;;;71.88;35.58;;;8.40;82.00;;;;;;5116267;27;20264;-75
2021/03/25 06:20:04;;;;;;;65.68;35.88;;;8.40;82.00;;;;;;5135172;27;20480;-76
2021/03/25 06:22:39;;;;;;;79.63;38.42;;;8.30;82.00;;;;;;5107647;27;20072;-76
2021/03/25 06:25:21;;;;;;;69.70;36.88;;;8.40;82.10;;;;;;5134462;27;20019;-76
2021/03/25 06:28:17;;;;;;;67.70;37.90;;;8.40;82.00;;;;;;5134350;27;20106;-76
2021/03/25 06:31:19;;;;;;;66.05;36.78;;;8.40;82.00;;;;;;5114679;27;20406;-76
2021/03/25 06:34:03;;;;;;;67.88;39.45;;;8.40;82.00;;;;;;5134432;27;20023;-76
2021/03/25 06:36:43;;;;;;;69.25;37.08;;;8.40;81.90;;;;;;5099286;27;20064;-76
2021/03/25 06:39:40;;;;;;;67.63;37.10;;;8.40;81.80;;;;;;5134053;27;20023;-76
2021/03/25 06:42:11;;;;;;;68.75;37.88;;;8.50;81.80;;;;;;5114017;28;20515;-76
2021/03/25 06:44:46;;;;;;;66.60;38.28;;;8.50;81.60;;;;;;5120599;27;20044;-76
2021/03/25 06:47:29;;;;;;;64.97;35.65;;;8.60;81.60;;;;;;5115823;27;20052;-76
2021/03/25 06:49:59;;;;;;;64.65;36.97;;;8.60;81.40;;;;;;5118041;27;20030;-75
2021/03/25 06:52:36;;;;;;;73.35;40.42;;;8.60;81.90;;;;;;5127031;27;20045;-76
2021/03/25 06:55:16;;;;;;;73.03;40.33;;;8.70;81.20;;;;;;5134107;27;20069;-76
2021/03/25 06:57:59;;;;;;;76.05;39.25;;;8.70;81.10;;;;;;5114843;28;20055;-76
2021/03/25 07:00:28;;;;;;;68.55;38.35;;;8.80;81.30;;;;;;5116129;27;20030;-76
2021/03/25 07:02:56;;;;;;;72.78;38.28;;;8.80;81.10;;;;;;5134220;27;20614;-75
2021/03/25 07:05:28;;;;;;;67.72;39.47;;;8.90;81.00;;;;;;5116144;27;20023;-76
2021/03/25 07:08:02;;;;;;;70.43;38.55;;;8.90;80.90;;;;;;5134416;27;20076;-76
2021/03/25 07:10:28;;;;;;;66.93;38.10;;;9.00;80.80;;;;;;5134257;27;20027;-76
2021/03/25 07:13:02;;;;;;;70.60;38.92;;;9.00;80.60;;;;;;5116151;27;20429;-76
2021/03/25 07:15:28;;;;;;;65.97;36.50;;;9.00;80.60;;;;;;5113889;28;20023;-76
2021/03/25 07:17:54;;;;;;;65.35;37.67;;;9.10;80.60;;;;;;5113330;27;20483;-76
2021/03/25 07:20:30;;;;;;;67.05;38.42;;;9.10;80.50;;;;;;5115561;27;20042;-76
2021/03/25 07:23:00;;;;;;;68.13;38.90;;;9.10;80.60;;;;;;5113943;28;20063;-76
2021/03/25 07:25:26;;;;;;;76.68;40.20;;;9.10;80.60;;;;;;5096113;27;20518;-76
2021/03/25 07:27:53;;;;;;;74.15;39.15;;;9.10;80.70;;;;;;5115656;28;20095;-76
2021/03/25 07:30:22;;;;;;;67.65;36.80;;;9.20;80.70;;;;;;5134048;27;20031;-76
2021/03/25 07:32:49;;;;;;;;;;;9.20;80.50;;;;;;5129843;27;20023;-76
2021/03/25 07:35:26;;;;;;;68.40;35.28;;;9.20;80.40;;;;;;5095310;28;19965;-76
2021/03/25 07:37:53;;;;;;;68.50;35.92;;;9.20;80.50;;;;;;5095017;28;20024;-76
2021/03/25 07:40:27;;;;;;;65.90;37.67;;;9.20;80.40;;;;;;5113703;28;20055;-76
2021/03/25 07:42:54;;;;;;;74.03;38.20;;;9.20;80.50;;;;;;5103683;28;20031;-76
2021/03/25 07:45:30;;;;;;;68.53;38.45;;;9.30;80.50;;;;;;5114856;27;20110;-76
2021/03/25 07:48:12;;;;;;;75.28;40.95;;;9.30;80.40;;;;;;5128131;28;20108;-76
2021/03/25 07:50:39;;;;;;;73.68;38.85;;;9.40;80.30;;;;;;5114812;28;20391;-76
2021/03/25 07:53:27;;;;;;;65.97;37.05;;;9.40;80.20;;;;;;5133280;27;20070;-76
2021/03/25 07:56:17;;;;;;;66.85;36.72;;;9.50;80.30;;;;;;5114835;28;20118;-76
2021/03/25 07:58:44;;;;;;;67.50;37.58;;;9.60;80.90;;;;;;5109443;28;20512;-76
2021/03/25 08:01:18;;;;;;;71.05;37.90;;;9.70;80.00;;;;;;5133870;28;20024;-76
2021/03/25 08:03:50;;;;;;;69.47;36.63;;;9.80;79.90;;;;;;5115566;28;20517;-77
2021/03/25 08:06:28;;;;;;;63.10;35.75;;;9.90;80.00;;;;;;5115708;28;20038;-77
2021/03/25 08:09:09;;;;;;;78.32;41.00;;;10.00;79.70;;;;;;5138002;27;20135;-77
2021/03/25 08:11:50;;;;;;;70.88;38.70;;;10.00;79.70;;;;;;5119452;27;20028;-78
2021/03/25 08:14:23;;;;;;;68.53;38.67;;;10.10;79.70;;;;;;5137966;27;20436;-78
2021/03/25 08:17:00;;;;;;;70.85;39.47;;;10.10;79.80;;;;;;5138195;27;20041;-78
2021/03/25 08:19:29;;;;;;;71.13;38.15;;;10.20;79.60;;;;;;5137648;27;20023;-78
2021/03/25 08:22:28;;;;;;;69.47;39.20;;;10.20;79.40;;;;;;5137924;27;20051;-78
2021/03/25 08:24:54;;;;;;;63.63;36.20;;;10.20;79.60;;;;;;5137867;27;20263;-78
2021/03/25 08:27:32;;;;;;;70.75;38.85;;;10.30;79.60;;;;;;5119382;27;20483;-78
2021/03/25 08:30:26;;;;;;;69.88;37.88;;;10.30;79.40;;;;;;5119417;27;20054;-78
2021/03/25 08:33:11;;;;;;;71.78;39.92;;;10.40;79.60;;;;;;5137827;27;20479;-78
2021/03/25 08:35:47;;;;;;;70.50;37.95;;;10.40;79.50;;;;;;5119200;27;20495;-78
2021/03/25 08:38:48;;;;;;;64.75;36.45;;;10.50;79.60;;;;;;5119174;27;20046;-78
2021/03/25 08:41:25;;;;;;;62.38;36.10;;;10.50;79.50;;;;;;5137321;27;20072;-78
2021/03/25 08:44:09;;;;;;;60.78;33.45;;;10.60;79.20;;;;;;5137057;27;20030;-78
2021/03/25 08:46:51;;;;;;;54.58;33.65;;;10.80;79.00;;;;;;5137139;27;20042;-78
2021/03/25 08:49:21;;;;;;;68.43;36.10;;;11.00;78.60;;;;;;5136980;27;20102;-78
2021/03/25 08:51:49;;;;;;;67.88;36.70;;;11.20;77.80;;;;;;5137002;27;20051;-78
2021/03/25 08:54:31;;;;;;;64.03;37.00;;;11.40;77.40;;;;;;5137094;27;20019;-78
2021/03/25 08:57:20;;;;;;;53.58;31.65;;;11.50;77.30;;;;;;5118095;27;20111;-78
2021/03/25 09:00:04;;;;;;;57.47;31.07;;;11.70;76.70;;;;;;5118565;27;20038;-78
2021/03/25 09:02:50;;;;;;;51.33;31.25;;;12.00;76.20;;;;;;5116789;28;20034;-78
2021/03/25 09:05:29;;;;;;;50.78;29.92;;;12.20;75.50;;;;;;5125879;27;20023;-78
2021/03/25 09:07:59;;;;;;;51.65;30.45;;;12.40;75.00;;;;;;5136970;27;20024;-78
2021/03/25 09:10:36;;;;;;;49.30;30.35;;;12.60;74.30;;;;;;5136665;27;20019;-78
2021/03/25 09:13:12;;;;;;;61.17;33.53;;;12.70;73.70;;;;;;5137080;27;20022;-78
2021/03/25 09:15:40;;;;;;;53.65;30.23;;;12.80;73.40;;;;;;5136573;27;20067;-78
2021/03/25 09:18:08;;;;;;;48.95;27.98;;;12.90;73.10;;;;;;5118342;27;20524;-78
2021/03/25 09:20:37;;;;;;;53.50;29.48;;;13.00;72.60;;;;;;5136605;27;20172;-78
2021/03/25 09:23:31;;;;;;;50.42;29.10;;;13.20;72.10;;;;;;5118089;27;20019;-78
2021/03/25 09:26:02;;;;;;;55.22;27.42;;;13.30;71.70;;;;;;5136603;27;20086;-78
2021/03/25 09:29:01;;;;;;;52.03;28.27;;;13.40;71.40;;;;;;5136355;27;20138;-77
2021/03/25 09:31:39;;;;;;;48.60;27.73;;;13.60;70.70;;;;;;5117932;27;20051;-81
2021/03/25 09:34:11;;;;;;;42.17;25.42;;;13.90;70.60;;;;;;5118071;27;20517;-78
2021/03/25 09:36:36;;;;;;;41.90;26.58;;;14.10;69.90;;;;;;5136326;27;20023;-78
2021/03/25 09:39:02;;;;;;;42.30;24.23;;;14.20;68.90;;;;;;5136086;27;20422;-78
2021/03/25 09:41:28;;;;;;;44.40;24.63;;;14.30;68.80;;;;;;5118125;27;20026;-78
2021/03/25 09:43:55;;;;;;;46.63;27.05;;;14.30;68.70;;;;;;5117347;27;20031;-78
2021/03/25 09:46:29;;;;;;;46.20;26.40;;;14.40;68.50;;;;;;5136004;27;20027;-78
2021/03/25 09:49:35;;;;;;;43.28;23.63;;;14.40;68.20;;;;;;5136151;27;20015;-78
2021/03/25 09:52:12;;;;;;;37.58;23.58;;;14.40;68.30;;;;;;5094984;27;20108;-78
2021/03/25 09:54:48;;;;;;;39.42;22.50;;;14.40;68.40;;;;;;5117548;27;20475;-78
2021/03/25 09:57:29;;;;;;;39.38;24.27;;;14.40;68.10;;;;;;5136086;27;20052;-78
2021/03/25 10:00:14;;;;;;;37.38;22.67;;;14.40;67.40;;;;;;5115453;28;20031;-78
2021/03/25 10:02:49;;;;;;;35.20;20.40;;;14.50;67.80;;;;;;5115489;28;20494;-78
2021/03/25 10:05:16;;;;;;;33.92;18.50;;;14.60;67.80;;;;;;5097068;28;20436;-78
2021/03/25 10:07:41;;;;;;;32.38;18.58;;;14.80;67.30;;;;;;5115214;28;20023;-78
2021/03/25 10:10:33;;;;;;;31.70;18.10;;;14.90;66.30;;;;;;5126574;27;20383;-78
2021/03/25 10:13:01;;;;;;;34.80;17.77;;;14.90;66.10;;;;;;5076636;28;20539;-78
2021/03/25 10:15:27;;;;;;;28.02;16.88;;;14.90;65.10;;;;;;5115206;28;20016;-78
2021/03/25 10:17:54;;;;;;;30.58;18.35;;;15.00;65.20;;;;;;5096795;28;20039;-78
2021/03/25 10:20:44;;;;;;;29.90;17.77;;;15.00;63.80;;;;;;5131220;27;20050;-76
2021/03/25 10:23:58;;;;;;;34.05;16.05;;;15.20;64.90;;;;;;5116719;27;20030;-76
2021/03/25 10:26:40;;;;;;;26.65;14.73;;;15.50;63.60;;;;;;5061000;27;20031;-76
2021/03/25 10:29:09;;;;;;;23.38;13.40;;;15.70;63.40;;;;;;5134582;27;20360;-76
2021/03/25 10:32:00;;;;;;;25.35;14.45;;;15.90;62.40;;;;;;5134662;27;20019;-76
2021/03/25 10:34:40;;;;;;;26.27;13.82;;;15.90;60.50;;;;;;5134560;27;20019;-76
2021/03/25 10:37:35;;;;;;;23.35;12.60;;;15.90;60.90;;;;;;5134673;27;20027;-77
2021/03/25 10:40:15;;;;;;;24.42;13.98;;;16.20;61.60;;;;;;5116183;27;20026;-76
2021/03/25 10:42:44;;;;;;;20.15;12.35;;;16.40;59.90;;;;;;5134698;27;20498;-77
2021/03/25 10:45:20;;;;;;;22.50;12.70;;;16.20;58.20;;;;;;5134947;27;20035;-76
2021/03/25 10:47:59;;;;;;;22.15;13.63;;;16.00;58.50;;;;;;5135117;27;20023;-77
2021/03/25 10:50:34;;;;;;;28.52;13.57;;;15.70;59.50;;;;;;5116417;27;20450;-77
2021/03/25 10:53:14;;;;;;;28.02;14.02;;;15.50;60.60;;;;;;5116108;27;20039;-76
2021/03/25 10:55:45;;;;;;;21.00;13.32;;;15.20;61.40;;;;;;5134506;27;20483;-77
2021/03/25 10:58:39;;;;;;;22.77;13.57;;;15.00;61.80;;;;;;5134596;27;20043;-76
2021/03/25 11:01:17;;;;;;;18.58;11.50;;;14.70;62.20;;;;;;5130089;27;20042;-76
2021/03/25 11:03:43;;;;;;;21.85;12.43;;;14.60;63.20;;;;;;5134814;27;20475;-76
2021/03/25 11:06:24;;;;;;;17.88;10.45;;;14.50;63.60;;;;;;5116141;27;20038;-76
2021/03/25 11:08:50;;;;;;;21.42;12.43;;;14.50;63.80;;;;;;5115877;27;20027;-76
2021/03/25 11:11:20;;;;;;;15.95;10.25;;;14.40;64.00;;;;;;5115102;27;20031;-76
2021/03/25 11:14:04;;;;;;;15.57;9.55;;;14.50;64.20;;;;;;5115485;27;20399;-76
2021/03/25 11:16:32;;;;;;;16.42;9.82;;;14.50;64.40;;;;;;5133983;27;20051;-76
2021/03/25 11:19:06;;;;;;;15.63;9.32;;;14.50;64.20;;;;;;5098865;27;20023;-76
2021/03/25 11:21:37;;;;;;;18.73;9.88;;;14.50;64.40;;;;;;5115938;27;20064;-77
2021/03/25 11:24:12;;;;;;;14.15;8.43;;;14.60;64.20;;;;;;5134367;27;20076;-76
2021/03/25 11:26:37;;;;;;;15.02;8.60;;;14.60;64.60;;;;;;5134167;27;20479;-77
2021/03/25 11:29:08;;;;;;;11.15;8.15;;;14.70;64.10;;;;;;5134132;27;20027;-76
2021/03/25 11:31:36;;;;;;;14.57;8.68;;;14.90;64.10;;;;;;5134117;27;20476;-76
2021/03/25 11:34:02;;;;;;;14.13;8.35;;;15.00;64.30;;;;;;5115827;28;20035;-76
2021/03/25 11:36:52;;;;;;;12.02;8.52;;;15.10;64.20;;;;;;5134004;27;20056;-76
2021/03/25 11:39:25;;;;;;;14.65;8.05;;;15.30;64.20;;;;;;5134128;27;20015;-76
2021/03/25 11:41:55;;;;;;;10.15;7.78;;;15.40;64.00;;;;;;5116520;27;20045;-76
2021/03/25 11:44:48;;;;;;;15.38;9.35;;;15.60;63.80;;;;;;5138489;27;20471;-77
2021/03/25 11:47:41;;;;;;;12.82;10.20;;;15.80;63.80;;;;;;5137896;27;20424;-76
2021/03/25 11:50:15;;;;;;;10.73;7.90;;;15.90;63.30;;;;;;5138235;27;20023;-77
2021/03/25 11:52:43;;;;;;;10.32;7.63;;;16.00;62.50;;;;;;5138222;27;20391;-77
2021/03/25 11:55:31;;;;;;;13.88;7.95;;;15.90;62.90;;;;;;5119942;27;20027;-76
2021/03/25 11:58:25;;;;;;;11.52;8.60;;;15.90;62.80;;;;;;5138644;27;20023;-77
2021/03/25 12:01:04;;;;;;;12.00;9.23;;;15.90;63.50;;;;;;5137611;27;20480;-76
2021/03/25 12:03:35;;;;;;;17.13;9.27;;;15.90;62.80;;;;;;5137856;27;20027;-76
2021/03/25 12:06:02;;;;;;;16.25;8.88;;;16.00;62.90;;;;;;5137546;27;20395;-76
2021/03/25 12:08:31;;;;;;;14.77;10.57;;;16.00;62.80;;;;;;5102355;27;20055;-77
2021/03/25 12:11:05;;;;;;;18.15;10.80;;;16.00;62.40;;;;;;5119583;27;20030;-77
2021/03/25 12:13:31;;;;;;;14.15;9.52;;;16.00;62.00;;;;;;5118932;27;20034;-77
2021/03/25 12:15:57;;;;;;;14.90;10.13;;;16.00;62.50;;;;;;5097396;28;20024;-76
2021/03/25 12:18:46;;;;;;;12.93;9.70;;;16.00;62.50;;;;;;5116474;27;20380;-76
2021/03/25 12:21:12;;;;;;;16.77;8.98;;;16.10;62.30;;;;;;5125293;27;20495;-77
2021/03/25 12:23:40;;;;;;;17.20;10.00;;;16.10;62.50;;;;;;5133437;27;20115;-76
2021/03/25 12:26:12;;;;;;;16.65;10.27;;;16.10;61.80;;;;;;5136658;27;20152;-77
2021/03/25 12:28:38;;;;;;;15.82;10.32;;;16.10;61.90;;;;;;5113155;27;20117;-77
2021/03/25 12:31:04;;;;;;;12.85;8.85;;;16.00;62.50;;;;;;5118403;27;20555;-77
2021/03/25 12:33:33;;;;;;;17.73;10.27;;;16.10;62.60;;;;;;5118743;27;20034;-77
2021/03/25 12:36:00;;;;;;;15.38;9.70;;;16.30;62.30;;;;;;5137634;27;20034;-76
2021/03/25 12:38:27;;;;;;;14.30;8.80;;;16.30;61.50;;;;;;5137372;27;20471;-76
2021/03/25 12:40:53;;;;;;;14.35;8.32;;;16.30;61.40;;;;;;5118903;27;20122;-77
2021/03/25 12:43:23;;;;;;;17.55;9.35;;;16.20;61.60;;;;;;5118961;27;20055;-78
2021/03/25 12:45:51;;;;;;;12.77;8.35;;;16.00;61.40;;;;;;5118852;27;20034;-78
2021/03/25 12:48:20;;;;;;;15.33;8.33;;;15.70;61.90;;;;;;5118808;27;20069;-77
2021/03/25 12:50:46;;;;;;;10.35;6.93;;;15.50;62.80;;;;;;5137220;27;20978;-78
2021/03/25 12:53:12;;;;;;;9.07;5.72;;;15.20;63.60;;;;;;5100957;27;20051;-78
2021/03/25 12:55:38;;;;;;;11.75;6.75;;;14.80;65.10;;;;;;5136517;27;20107;-77
2021/03/25 12:58:04;;;;;;;9.50;6.38;;;14.60;65.50;;;;;;5123907;27;20038;-77
2021/03/25 13:00:36;;;;;;;9.82;5.38;;;14.40;66.40;;;;;;5144650;27;20026;-77
2021/03/25 13:03:06;;;;;;;10.00;5.88;;;14.30;67.50;;;;;;5130046;27;20086;-77
2021/03/25 13:05:31;;;;;;;10.60;5.65;;;14.30;67.20;;;;;;5139083;27;20030;-78
2021/03/25 13:07:57;;;;;;;8.73;5.50;;;14.20;67.20;;;;;;5125635;27;20027;-77
2021/03/25 13:10:29;;;;;;;13.30;7.15;;;14.20;67.50;;;;;;5136568;27;20059;-77
2021/03/25 13:12:59;;;;;;;8.90;6.38;;;14.30;67.80;;;;;;5136771;27;20033;-77
2021/03/25 13:15:25;;;;;;;8.82;6.18;;;14.40;67.20;;;;;;5118266;27;20457;-77